sensor_id;sensor_type;location;lat;lon;timestamp;pressure;altitude;pressure_sealevel;temperature;humidity
44001;BME280;29660;42.892;24.710;2023-08-30T00:01:57;96129.28;;;20.43;100.00
44001;BME280;29660;42.892;24.710;2023-08-30T00:07:20;96123.34;;;20.30;100.00
44001;BME280;29660;42.892;24.710;2023-08-30T00:12:42;96061.72;;;19.79;100.00
44001;BME280;29660;42.892;24.710;2023-08-30T00:18:04;96149.44;;;20.12;100.00
44001;BME280;29660;42.892;24.710;2023-08-30T00:23:27;95956.53;;;19.07;100.00
44001;BME280;29660;42.892;24.710;2023-08-30T00:28:49;96011.22;;;19.27;100.00
44001;BME280;29660;42.892;24.710;2023-08-30T00:34:12;96111.31;;;19.91;100.00
44001;BME280;29660;42.892;24.710;2023-08-30T00:39:37;96002.22;;;19.19;100.00
44001;BME280;29660;42.892;24.710;2023-08-30T00:44:59;96106.94;;;19.79;100.00
44001;BME280;29660;42.892;24.710;2023-08-30T00:50:21;95796.00;;;17.68;100.00
44001;BME280;29660;42.892;24.710;2023-08-30T00:55:44;95947.44;;;18.65;100.00
44001;BME280;29660;42.892;24.710;2023-08-30T01:01:07;96092.34;;;19.60;100.00
44001;BME280;29660;42.892;24.710;2023-08-30T01:06:30;96095.38;;;19.55;100.00
44001;BME280;29660;42.892;24.710;2023-08-30T01:12:10;96101.53;;;19.52;100.00
44001;BME280;29660;42.892;24.710;2023-08-30T01:17:35;96007.88;;;18.80;100.00
44001;BME280;29660;42.892;24.710;2023-08-30T01:23:06;96097.91;;;19.41;100.00
44001;BME280;29660;42.892;24.710;2023-08-30T01:28:33;96108.16;;;19.28;100.00
44001;BME280;29660;42.892;24.710;2023-08-30T01:33:56;96103.63;;;19.09;100.00
44001;BME280;29660;42.892;24.710;2023-08-30T01:39:20;96105.63;;;19.12;100.00
44001;BME280;29660;42.892;24.710;2023-08-30T01:44:44;96106.66;;;19.04;100.00
44001;BME280;29660;42.892;24.710;2023-08-30T01:50:09;96041.38;;;18.53;100.00
44001;BME280;29660;42.892;24.710;2023-08-30T01:55:32;96103.84;;;18.97;100.00
44001;BME280;29660;42.892;24.710;2023-08-30T02:00:55;96091.00;;;18.91;100.00
44001;BME280;29660;42.892;24.710;2023-08-30T02:06:21;95912.31;;;17.66;100.00
44001;BME280;29660;42.892;24.710;2023-08-30T02:11:47;95986.63;;;18.06;100.00
44001;BME280;29660;42.892;24.710;2023-08-30T02:17:14;96088.47;;;18.78;100.00
44001;BME280;29660;42.892;24.710;2023-08-30T02:22:37;95964.84;;;17.96;100.00
44001;BME280;29660;42.892;24.710;2023-08-30T02:28:01;96082.47;;;18.65;100.00
44001;BME280;29660;42.892;24.710;2023-08-30T02:33:23;95969.22;;;17.81;100.00
44001;BME280;29660;42.892;24.710;2023-08-30T02:38:45;96081.03;;;18.49;100.00
44001;BME280;29660;42.892;24.710;2023-08-30T02:44:11;96086.81;;;18.47;100.00
44001;BME280;29660;42.892;24.710;2023-08-30T02:49:33;96079.34;;;18.40;100.00
44001;BME280;29660;42.892;24.710;2023-08-30T02:54:55;95958.72;;;17.56;100.00
44001;BME280;29660;42.892;24.710;2023-08-30T03:00:17;96078.63;;;18.21;100.00
44001;BME280;29660;42.892;24.710;2023-08-30T03:05:43;96084.66;;;18.14;100.00
44001;BME280;29660;42.892;24.710;2023-08-30T03:11:13;95973.03;;;17.37;100.00
44001;BME280;29660;42.892;24.710;2023-08-30T03:16:43;96087.53;;;18.02;100.00
44001;BME280;29660;42.892;24.710;2023-08-30T03:22:07;95938.97;;;16.90;100.00
44001;BME280;29660;42.892;24.710;2023-08-30T03:27:30;95995.75;;;17.21;100.00
44001;BME280;29660;42.892;24.710;2023-08-30T03:32:52;96104.88;;;17.81;100.00
44001;BME280;29660;42.892;24.710;2023-08-30T03:38:15;96109.41;;;17.77;100.00
44001;BME280;29660;42.892;24.710;2023-08-30T03:43:38;95994.94;;;16.81;100.00
44001;BME280;29660;42.892;24.710;2023-08-30T03:49:03;95910.97;;;16.25;100.00
44001;BME280;29660;42.892;24.710;2023-08-30T03:54:25;96114.47;;;17.63;100.00
44001;BME280;29660;42.892;24.710;2023-08-30T03:59:48;96110.22;;;17.62;100.00
44001;BME280;29660;42.892;24.710;2023-08-30T04:05:10;96118.16;;;17.74;100.00
44001;BME280;29660;42.892;24.710;2023-08-30T04:10:37;96131.84;;;17.81;100.00
44001;BME280;29660;42.892;24.710;2023-08-30T04:15:59;95990.88;;;17.07;100.00
44001;BME280;29660;42.892;24.710;2023-08-30T04:21:22;96013.16;;;17.42;100.00
44001;BME280;29660;42.892;24.710;2023-08-30T04:26:44;96104.94;;;18.27;100.00
44001;BME280;29660;42.892;24.710;2023-08-30T04:32:06;95878.16;;;16.89;100.00
44001;BME280;29660;42.892;24.710;2023-08-30T04:37:30;96144.88;;;18.60;100.00
44001;BME280;29660;42.892;24.710;2023-08-30T04:42:54;96121.72;;;18.59;100.00
44001;BME280;29660;42.892;24.710;2023-08-30T04:48:16;96047.38;;;18.20;100.00
44001;BME280;29660;42.892;24.710;2023-08-30T04:53:38;96120.63;;;18.83;100.00
44001;BME280;29660;42.892;24.710;2023-08-30T04:59:02;96039.06;;;18.55;100.00
44001;BME280;29660;42.892;24.710;2023-08-30T05:04:28;96125.69;;;19.38;100.00
44001;BME280;29660;42.892;24.710;2023-08-30T05:09:50;96113.41;;;19.71;100.00
44001;BME280;29660;42.892;24.710;2023-08-30T05:15:12;96055.28;;;19.61;100.00
44001;BME280;29660;42.892;24.710;2023-08-30T05:20:35;96086.59;;;19.92;100.00
44001;BME280;29660;42.892;24.710;2023-08-30T05:25:58;96119.47;;;20.28;100.00
44001;BME280;29660;42.892;24.710;2023-08-30T05:31:20;96126.72;;;20.54;100.00
44001;BME280;29660;42.892;24.710;2023-08-30T05:36:53;96042.44;;;20.22;100.00
44001;BME280;29660;42.892;24.710;2023-08-30T05:42:27;96124.00;;;20.98;100.00
44001;BME280;29660;42.892;24.710;2023-08-30T05:47:50;95899.28;;;19.69;100.00
44001;BME280;29660;42.892;24.710;2023-08-30T05:53:13;96122.66;;;21.22;100.00
44001;BME280;29660;42.892;24.710;2023-08-30T05:58:35;96122.78;;;21.40;100.00
44001;BME280;29660;42.892;24.710;2023-08-30T06:03:58;96112.88;;;21.69;100.00
44001;BME280;29660;42.892;24.710;2023-08-30T07:57:14;96086.69;;;26.70;55.32
44001;BME280;29660;42.892;24.710;2023-08-30T08:02:36;96081.78;;;26.85;55.06
44001;BME280;29660;42.892;24.710;2023-08-30T08:07:59;96078.47;;;27.21;54.72
44001;BME280;29660;42.892;24.710;2023-08-30T08:13:22;96058.69;;;27.09;52.61
44001;BME280;29660;42.892;24.710;2023-08-30T08:18:44;96081.84;;;27.05;53.33
44001;BME280;29660;42.892;24.710;2023-08-30T08:24:07;96071.25;;;26.83;53.12
44001;BME280;29660;42.892;24.710;2023-08-30T08:29:29;96047.97;;;26.48;53.40
44001;BME280;29660;42.892;24.710;2023-08-30T08:34:51;96038.88;;;26.78;51.12
44001;BME280;29660;42.892;24.710;2023-08-30T08:40:14;95989.69;;;26.98;51.91
44001;BME280;29660;42.892;24.710;2023-08-30T08:45:38;96068.13;;;27.72;48.27
44001;BME280;29660;42.892;24.710;2023-08-30T08:51:00;96034.06;;;27.53;47.99
44001;BME280;29660;42.892;24.710;2023-08-30T08:56:23;95947.03;;;27.01;46.52
44001;BME280;29660;42.892;24.710;2023-08-30T09:01:47;96053.53;;;27.98;46.88
44001;BME280;29660;42.892;24.710;2023-08-30T09:07:10;96013.06;;;27.86;45.91
44001;BME280;29660;42.892;24.710;2023-08-30T09:12:34;96059.09;;;28.31;45.43
44001;BME280;29660;42.892;24.710;2023-08-30T09:17:57;96051.75;;;28.44;46.05
44001;BME280;29660;42.892;24.710;2023-08-30T09:23:20;96059.31;;;28.89;45.13
44001;BME280;29660;42.892;24.710;2023-08-30T09:28:43;95894.66;;;27.95;43.94
44001;BME280;29660;42.892;24.710;2023-08-30T09:34:06;96047.81;;;29.10;43.88
44001;BME280;29660;42.892;24.710;2023-08-30T09:39:28;95981.97;;;28.45;44.55
44001;BME280;29660;42.892;24.710;2023-08-30T09:44:51;96033.47;;;29.19;44.21
44001;BME280;29660;42.892;24.710;2023-08-30T09:50:19;96011.34;;;29.39;43.27
44001;BME280;29660;42.892;24.710;2023-08-30T09:55:42;96002.84;;;29.21;43.43
44001;BME280;29660;42.892;24.710;2023-08-30T10:01:06;96001.84;;;29.27;43.15
44001;BME280;29660;42.892;24.710;2023-08-30T10:06:29;95713.88;;;27.58;43.35
44001;BME280;29660;42.892;24.710;2023-08-30T10:11:53;95984.53;;;29.59;42.92
44001;BME280;29660;42.892;24.710;2023-08-30T10:17:18;96021.97;;;29.95;43.54
44001;BME280;29660;42.892;24.710;2023-08-30T10:22:41;96011.19;;;30.01;42.59
44001;BME280;29660;42.892;24.710;2023-08-30T10:28:05;96002.94;;;30.01;42.29
44001;BME280;29660;42.892;24.710;2023-08-30T10:33:29;95997.13;;;30.12;41.85
44001;BME280;29660;42.892;24.710;2023-08-30T10:38:53;95984.59;;;30.36;41.50
44001;BME280;29660;42.892;24.710;2023-08-30T10:44:17;95950.38;;;30.37;41.95
44001;BME280;29660;42.892;24.710;2023-08-30T10:49:43;95966.59;;;30.83;40.95
44001;BME280;29660;42.892;24.710;2023-08-30T10:55:16;95948.63;;;30.91;42.00
44001;BME280;29660;42.892;24.710;2023-08-30T11:00:39;95926.13;;;30.92;41.09
44001;BME280;29660;42.892;24.710;2023-08-30T11:06:02;95956.63;;;31.20;40.32
44001;BME280;29660;42.892;24.710;2023-08-30T11:11:25;95866.19;;;30.40;40.61
44001;BME280;29660;42.892;24.710;2023-08-30T11:16:47;95945.94;;;31.00;39.67
44001;BME280;29660;42.892;24.710;2023-08-30T11:22:09;95907.91;;;30.73;39.97
44001;BME280;29660;42.892;24.710;2023-08-30T11:27:32;95933.47;;;31.30;39.95
44001;BME280;29660;42.892;24.710;2023-08-30T11:32:54;95941.91;;;31.58;39.52
44001;BME280;29660;42.892;24.710;2023-08-30T11:38:17;95944.03;;;31.53;38.86
44001;BME280;29660;42.892;24.710;2023-08-30T11:43:40;95928.59;;;31.34;39.81
44001;BME280;29660;42.892;24.710;2023-08-30T11:49:03;95788.47;;;30.48;39.31
44001;BME280;29660;42.892;24.710;2023-08-30T11:54:26;95835.03;;;30.65;39.40
44001;BME280;29660;42.892;24.710;2023-08-30T11:59:48;95847.16;;;31.11;39.44
44001;BME280;29660;42.892;24.710;2023-08-30T12:05:15;95903.59;;;31.50;39.10
44001;BME280;29660;42.892;24.710;2023-08-30T12:10:37;95894.06;;;31.73;38.60
44001;BME280;29660;42.892;24.710;2023-08-30T12:16:02;95824.53;;;31.38;38.55
44001;BME280;29660;42.892;24.710;2023-08-30T12:21:25;95900.44;;;31.92;39.21
44001;BME280;29660;42.892;24.710;2023-08-30T12:26:49;95810.16;;;31.43;38.12
44001;BME280;29660;42.892;24.710;2023-08-30T12:32:11;95887.09;;;31.91;38.35
44001;BME280;29660;42.892;24.710;2023-08-30T12:37:33;95880.88;;;32.09;38.26
44001;BME280;29660;42.892;24.710;2023-08-30T12:42:56;95815.81;;;31.80;38.06
44001;BME280;29660;42.892;24.710;2023-08-30T12:48:18;95774.56;;;31.27;38.99
44001;BME280;29660;42.892;24.710;2023-08-30T12:53:41;95884.25;;;32.04;39.77
44001;BME280;29660;42.892;24.710;2023-08-30T12:59:03;95894.38;;;31.44;41.36
44001;BME280;29660;42.892;24.710;2023-08-30T13:04:25;95904.19;;;30.67;43.60
44001;BME280;29660;42.892;24.710;2023-08-30T13:09:47;95889.34;;;29.91;45.16
44001;BME280;29660;42.892;24.710;2023-08-30T13:15:10;95894.38;;;30.05;45.58
44001;BME280;29660;42.892;24.710;2023-08-30T13:20:32;95709.78;;;28.41;46.02
44001;BME280;29660;42.892;24.710;2023-08-30T13:25:54;95814.50;;;28.94;46.67
44001;BME280;29660;42.892;24.710;2023-08-30T13:31:16;95916.44;;;29.38;47.31
44001;BME280;29660;42.892;24.710;2023-08-30T13:36:39;95868.94;;;28.96;48.69
44001;BME280;29660;42.892;24.710;2023-08-30T13:42:01;95930.66;;;28.91;48.95
44001;BME280;29660;42.892;24.710;2023-08-30T13:47:24;95927.19;;;28.74;49.04
44001;BME280;29660;42.892;24.710;2023-08-30T13:52:46;95945.13;;;28.62;49.32
44001;BME280;29660;42.892;24.710;2023-08-30T13:58:09;95928.22;;;29.09;48.25
44001;BME280;29660;42.892;24.710;2023-08-30T14:03:31;95902.50;;;28.25;49.73
44001;BME280;29660;42.892;24.710;2023-08-30T14:08:53;95952.69;;;28.87;48.80
44001;BME280;29660;42.892;24.710;2023-08-30T14:14:15;95932.13;;;29.25;48.29
44001;BME280;29660;42.892;24.710;2023-08-30T14:19:38;95948.06;;;29.43;47.98
44001;BME280;29660;42.892;24.710;2023-08-30T14:25:02;95880.84;;;28.76;48.40
44001;BME280;29660;42.892;24.710;2023-08-30T14:30:30;95896.38;;;28.83;48.40
44001;BME280;29660;42.892;24.710;2023-08-30T14:35:52;95973.25;;;29.12;49.59
44001;BME280;29660;42.892;24.710;2023-08-30T14:41:14;95995.28;;;28.47;51.39
44001;BME280;29660;42.892;24.710;2023-08-30T14:46:39;95988.25;;;28.62;51.12
44001;BME280;29660;42.892;24.710;2023-08-30T14:52:01;96005.09;;;28.28;51.89
44001;BME280;29660;42.892;24.710;2023-08-30T14:57:23;96002.16;;;28.19;53.66
44001;BME280;29660;42.892;24.710;2023-08-30T15:02:46;95931.59;;;27.50;55.71
44001;BME280;29660;42.892;24.710;2023-08-30T15:08:09;95868.66;;;26.90;58.41
44001;BME280;29660;42.892;24.710;2023-08-30T15:13:31;95982.97;;;27.82;59.27
44001;BME280;29660;42.892;24.710;2023-08-30T15:18:53;96026.81;;;28.02;60.28
44001;BME280;29660;42.892;24.710;2023-08-30T15:24:15;96017.53;;;27.96;60.54
44001;BME280;29660;42.892;24.710;2023-08-30T15:29:39;96039.22;;;27.91;60.39
44001;BME280;29660;42.892;24.710;2023-08-30T15:35:01;96033.56;;;27.78;62.74
44001;BME280;29660;42.892;24.710;2023-08-30T15:40:23;96057.91;;;27.76;64.19
44001;BME280;29660;42.892;24.710;2023-08-30T15:45:45;96039.47;;;27.56;66.76
44001;BME280;29660;42.892;24.710;2023-08-30T15:51:08;96046.69;;;27.47;68.33
44001;BME280;29660;42.892;24.710;2023-08-30T15:56:44;96030.16;;;27.10;70.81
44001;BME280;29660;42.892;24.710;2023-08-30T16:02:07;95907.53;;;26.35;70.30
44001;BME280;29660;42.892;24.710;2023-08-30T16:07:29;96055.03;;;27.20;70.29
44001;BME280;29660;42.892;24.710;2023-08-30T16:12:51;95807.13;;;25.41;68.49
44001;BME280;29660;42.892;24.710;2023-08-30T16:18:13;96074.34;;;26.85;75.82
44001;BME280;29660;42.892;24.710;2023-08-30T16:23:37;96097.00;;;26.32;91.43
44001;BME280;29660;42.892;24.710;2023-08-30T16:29:01;96042.94;;;24.72;100.00
44001;BME280;29660;42.892;24.710;2023-08-30T16:34:24;96102.13;;;24.71;100.00
44001;BME280;29660;42.892;24.710;2023-08-30T16:39:46;96074.97;;;24.57;100.00
44001;BME280;29660;42.892;24.710;2023-08-30T16:45:09;96059.78;;;23.86;100.00
44001;BME280;29660;42.892;24.710;2023-08-30T16:50:31;96014.13;;;23.20;100.00
44001;BME280;29660;42.892;24.710;2023-08-30T16:55:54;96089.44;;;23.45;100.00
44001;BME280;29660;42.892;24.710;2023-08-30T17:01:16;96003.28;;;22.60;100.00
44001;BME280;29660;42.892;24.710;2023-08-30T17:06:38;95981.16;;;22.40;100.00
44001;BME280;29660;42.892;24.710;2023-08-30T17:12:00;95982.75;;;22.34;100.00
44001;BME280;29660;42.892;24.710;2023-08-30T17:17:24;96002.94;;;22.33;100.00
44001;BME280;29660;42.892;24.710;2023-08-30T17:22:46;96106.22;;;22.72;100.00
44001;BME280;29660;42.892;24.710;2023-08-30T17:28:09;96087.50;;;22.27;100.00
44001;BME280;29660;42.892;24.710;2023-08-30T17:33:32;96068.78;;;22.01;100.00
44001;BME280;29660;42.892;24.710;2023-08-30T17:38:55;96146.56;;;22.48;100.00
44001;BME280;29660;42.892;24.710;2023-08-30T17:44:17;96156.63;;;22.44;100.00
44001;BME280;29660;42.892;24.710;2023-08-30T17:49:42;96022.03;;;21.45;100.00
44001;BME280;29660;42.892;24.710;2023-08-30T17:55:05;96185.28;;;22.31;100.00
44001;BME280;29660;42.892;24.710;2023-08-30T18:00:28;96198.50;;;22.33;100.00
44001;BME280;29660;42.892;24.710;2023-08-30T18:05:50;96068.97;;;21.49;100.00
44001;BME280;29660;42.892;24.710;2023-08-30T18:11:13;96207.81;;;22.32;100.00
44001;BME280;29660;42.892;24.710;2023-08-30T18:16:36;96102.63;;;21.41;100.00
44001;BME280;29660;42.892;24.710;2023-08-30T18:21:58;96129.44;;;21.53;100.00
44001;BME280;29660;42.892;24.710;2023-08-30T18:27:20;96108.41;;;21.32;100.00
44001;BME280;29660;42.892;24.710;2023-08-30T18:32:42;96219.22;;;21.89;100.00
44001;BME280;29660;42.892;24.710;2023-08-30T18:38:06;96168.63;;;21.56;100.00
44001;BME280;29660;42.892;24.710;2023-08-30T18:43:28;96220.78;;;21.90;100.00
44001;BME280;29660;42.892;24.710;2023-08-30T18:48:50;96234.69;;;21.81;100.00
44001;BME280;29660;42.892;24.710;2023-08-30T18:54:14;96246.28;;;21.78;100.00
44001;BME280;29660;42.892;24.710;2023-08-30T18:59:37;96216.59;;;21.45;100.00
44001;BME280;29660;42.892;24.710;2023-08-30T19:04:59;96203.19;;;21.18;100.00
44001;BME280;29660;42.892;24.710;2023-08-30T19:10:21;96265.41;;;21.45;100.00
44001;BME280;29660;42.892;24.710;2023-08-30T19:15:44;96264.22;;;21.39;100.00
44001;BME280;29660;42.892;24.710;2023-08-30T19:21:06;96256.19;;;21.12;100.00
44001;BME280;29660;42.892;24.710;2023-08-30T19:26:30;96275.25;;;21.19;100.00
44001;BME280;29660;42.892;24.710;2023-08-30T19:31:52;96270.50;;;21.09;100.00
44001;BME280;29660;42.892;24.710;2023-08-30T19:37:14;96306.91;;;21.08;100.00
44001;BME280;29660;42.892;24.710;2023-08-30T19:42:36;96315.84;;;21.12;100.00
44001;BME280;29660;42.892;24.710;2023-08-30T19:47:59;96326.34;;;21.17;100.00
44001;BME280;29660;42.892;24.710;2023-08-30T19:53:22;96240.38;;;20.47;100.00
44001;BME280;29660;42.892;24.710;2023-08-30T19:58:44;96243.41;;;20.42;100.00
44001;BME280;29660;42.892;24.710;2023-08-30T20:04:06;96347.16;;;21.06;100.00
44001;BME280;29660;42.892;24.710;2023-08-30T20:09:29;96326.81;;;20.89;100.00
44001;BME280;29660;42.892;24.710;2023-08-30T20:14:54;96363.41;;;21.06;100.00
44001;BME280;29660;42.892;24.710;2023-08-30T20:20:16;96293.88;;;20.53;100.00
44001;BME280;29660;42.892;24.710;2023-08-30T20:25:38;96361.38;;;20.96;100.00
44001;BME280;29660;42.892;24.710;2023-08-30T20:31:01;96370.63;;;20.91;100.00
44001;BME280;29660;42.892;24.710;2023-08-30T20:36:24;96365.09;;;20.84;100.00
44001;BME280;29660;42.892;24.710;2023-08-30T20:41:55;96286.56;;;20.27;100.00
44001;BME280;29660;42.892;24.710;2023-08-30T20:47:18;96366.03;;;20.65;100.00
44001;BME280;29660;42.892;24.710;2023-08-30T20:52:40;96334.69;;;20.38;100.00
44001;BME280;29660;42.892;24.710;2023-08-30T20:58:03;96330.19;;;20.22;100.00
44001;BME280;29660;42.892;24.710;2023-08-30T21:03:25;96384.38;;;20.49;100.00
44001;BME280;29660;42.892;24.710;2023-08-30T21:08:47;96365.19;;;20.34;100.00
44001;BME280;29660;42.892;24.710;2023-08-30T21:14:11;96378.94;;;20.22;100.00
44001;BME280;29660;42.892;24.710;2023-08-30T21:19:35;96386.06;;;20.34;100.00
44001;BME280;29660;42.892;24.710;2023-08-30T21:24:58;96379.00;;;20.26;100.00
44001;BME280;29660;42.892;24.710;2023-08-30T21:30:20;96333.09;;;19.83;100.00
44001;BME280;29660;42.892;24.710;2023-08-30T21:35:44;96271.19;;;19.32;100.00
44001;BME280;29660;42.892;24.710;2023-08-30T21:41:07;96395.41;;;20.10;100.00
44001;BME280;29660;42.892;24.710;2023-08-30T21:46:29;96393.84;;;20.09;100.00
44001;BME280;29660;42.892;24.710;2023-08-30T21:51:52;96404.22;;;20.07;100.00
44001;BME280;29660;42.892;24.710;2023-08-30T21:57:14;96404.44;;;19.95;100.00
44001;BME280;29660;42.892;24.710;2023-08-30T22:02:36;96398.06;;;19.83;100.00
44001;BME280;29660;42.892;24.710;2023-08-30T22:07:59;96341.63;;;19.40;100.00
44001;BME280;29660;42.892;24.710;2023-08-30T22:13:21;96398.06;;;19.83;100.00
44001;BME280;29660;42.892;24.710;2023-08-30T22:18:43;96391.09;;;19.82;100.00
44001;BME280;29660;42.892;24.710;2023-08-30T22:24:06;96287.00;;;19.07;100.00
44001;BME280;29660;42.892;24.710;2023-08-30T22:29:28;96388.38;;;19.82;100.00
44001;BME280;29660;42.892;24.710;2023-08-30T22:34:50;96265.44;;;19.11;100.00
44001;BME280;29660;42.892;24.710;2023-08-30T22:40:12;96283.56;;;19.33;100.00
44001;BME280;29660;42.892;24.710;2023-08-30T22:45:34;96377.34;;;19.95;100.00
44001;BME280;29660;42.892;24.710;2023-08-30T22:51:02;96246.41;;;19.04;100.00
44001;BME280;29660;42.892;24.710;2023-08-30T22:56:27;96387.22;;;19.83;100.00
44001;BME280;29660;42.892;24.710;2023-08-30T23:01:49;96344.28;;;19.59;100.00
44001;BME280;29660;42.892;24.710;2023-08-30T23:07:11;96382.25;;;19.85;100.00
44001;BME280;29660;42.892;24.710;2023-08-30T23:12:33;96382.25;;;19.85;100.00
44001;BME280;29660;42.892;24.710;2023-08-30T23:17:56;96376.91;;;19.66;100.00
44001;BME280;29660;42.892;24.710;2023-08-30T23:23:18;96276.44;;;18.99;100.00
44001;BME280;29660;42.892;24.710;2023-08-30T23:28:40;96400.09;;;19.67;100.00
44001;BME280;29660;42.892;24.710;2023-08-30T23:34:03;96404.81;;;19.51;100.00
44001;BME280;29660;42.892;24.710;2023-08-30T23:39:28;96400.19;;;19.32;100.00
44001;BME280;29660;42.892;24.710;2023-08-30T23:44:51;96423.31;;;19.29;100.00
44001;BME280;29660;42.892;24.710;2023-08-30T23:50:13;96342.78;;;18.77;100.00
44001;BME280;29660;42.892;24.710;2023-08-30T23:55:35;96417.28;;;19.17;100.00
